createdAt,value
2023-02-21T00:00:58.913Z,98510.52
2023-02-21T00:02:03.106Z,98513.95
2023-02-21T00:03:07.228Z,98502.41
2023-02-21T00:04:11.321Z,98499.24
2023-02-21T00:05:15.492Z,98509.91
2023-02-21T00:06:19.876Z,98500.26
2023-02-21T00:07:24.141Z,98500.75
2023-02-21T00:08:28.257Z,98501.48
2023-02-21T00:09:32.371Z,98512.09
2023-02-21T00:10:36.623Z,98504.59
2023-02-21T00:11:40.747Z,98508.17
2023-02-21T00:12:44.841Z,98513.44
2023-02-21T00:13:48.959Z,98516.43
2023-02-21T00:14:53.085Z,98510.64
2023-02-21T00:15:57.206Z,98520.53
2023-02-21T00:17:01.330Z,98516.52
2023-02-21T00:18:05.436Z,98507.16
2023-02-21T00:19:09.592Z,98502.45
2023-02-21T00:20:13.740Z,98506.02
2023-02-21T00:21:21.106Z,98515.91
2023-02-21T00:22:25.214Z,98505.73
2023-02-21T00:23:29.294Z,98514.57
2023-02-21T00:24:33.387Z,98500.37
2023-02-21T00:25:37.482Z,98513.84
2023-02-21T00:26:41.598Z,98506.45
2023-02-21T00:27:45.718Z,98495.76
2023-02-21T00:28:49.804Z,98503.38
2023-02-21T00:29:53.894Z,98497.59
2023-02-21T00:30:58.186Z,98506.55
2023-02-21T00:32:02.488Z,98493.17
2023-02-21T00:33:08.459Z,98502.97
2023-02-21T00:34:12.778Z,98502.65
2023-02-21T00:35:16.904Z,98495.96
2023-02-21T00:36:21.217Z,98489.8
2023-02-21T00:37:25.373Z,98492.36
2023-02-21T00:38:29.501Z,98499.77
2023-02-21T00:39:33.629Z,98500.38
2023-02-21T00:40:37.733Z,98500.18
2023-02-21T00:41:41.839Z,98495.47
2023-02-21T00:42:45.956Z,98495.96
2023-02-21T00:43:50.128Z,98496.48
2023-02-21T00:44:54.246Z,98499.25
2023-02-21T00:45:58.455Z,98488.55
2023-02-21T00:47:02.655Z,98499.77
2023-02-21T00:48:06.765Z,98485.76
2023-02-21T00:49:10.870Z,98495.47
2023-02-21T00:50:14.985Z,98495.55
2023-02-21T00:51:19.101Z,98492.36
2023-02-21T00:52:23.233Z,98492.88
2023-02-21T00:53:27.316Z,98504.52
2023-02-21T00:54:31.437Z,98496.98
2023-02-21T00:55:35.532Z,98498.81
2023-02-21T00:56:39.648Z,98496.57
2023-02-21T00:57:43.784Z,98487.3
2023-02-21T00:58:47.900Z,98491.95
2023-02-21T00:59:52.026Z,98493.98
2023-02-21T01:00:56.303Z,98498.92
2023-02-21T01:02:00.477Z,98505.61
2023-02-21T01:03:04.580Z,98498.61
2023-02-21T01:04:08.729Z,98493.7
2023-02-21T01:05:12.888Z,98495.64
2023-02-21T01:06:16.984Z,98494.8
2023-02-21T01:07:21.107Z,98491.02
2023-02-21T01:08:25.209Z,98492.56
2023-02-21T01:09:29.291Z,98486.57
2023-02-21T01:10:33.379Z,98489.97
2023-02-21T01:11:37.475Z,98489.36
2023-02-21T01:12:41.603Z,98496.25
2023-02-21T01:13:45.695Z,98488.14
2023-02-21T01:14:49.825Z,98481.66
2023-02-21T01:15:54.080Z,98481.22
2023-02-21T01:17:13.275Z,98486.2
2023-02-21T01:18:17.780Z,98485.88
2023-02-21T01:19:21.885Z,98493.38
2023-02-21T01:20:25.979Z,98487.62
2023-02-21T01:21:30.075Z,98500.88
2023-02-21T01:22:34.183Z,98482.88
2023-02-21T01:23:38.301Z,98488.84
2023-02-21T01:24:42.427Z,98485.06
2023-02-21T01:25:46.556Z,98482.88
2023-02-21T01:26:50.650Z,98484.63
2023-02-21T01:27:54.744Z,98481.05
2023-02-21T01:28:58.861Z,98481.13
2023-02-21T01:30:03.219Z,98479.52
2023-02-21T01:31:07.757Z,98468.41
2023-02-21T01:32:12.079Z,98464.69
2023-02-21T01:33:16.234Z,98466.63
2023-02-21T01:34:20.342Z,98468.61
2023-02-21T01:35:24.459Z,98465.41
2023-02-21T01:36:28.549Z,98475.99
2023-02-21T01:37:32.646Z,98461.31
2023-02-21T01:38:36.810Z,98461.11
2023-02-21T01:39:40.981Z,98472.7
2023-02-21T01:40:45.077Z,98472.62
2023-02-21T01:41:49.188Z,98471.89
2023-02-21T01:42:53.286Z,98472.82
2023-02-21T01:43:57.375Z,98462.13
2023-02-21T01:45:01.487Z,98462.85
2023-02-21T01:46:05.638Z,98462.24
2023-02-21T01:47:09.863Z,98461.31
2023-02-21T01:48:14.011Z,98466.75
2023-02-21T01:49:18.133Z,98468.61
2023-02-21T01:50:22.232Z,98459.77
2023-02-21T01:51:26.342Z,98449.89
2023-02-21T01:52:30.442Z,98406.77
2023-02-21T01:53:34.544Z,98457.09
2023-02-21T01:54:38.638Z,98462.85
2023-02-21T01:55:42.775Z,98453.91
2023-02-21T01:56:46.864Z,98455.64
2023-02-21T01:57:50.958Z,98448.67
2023-02-21T01:58:55.044Z,98450.5
2023-02-21T01:59:59.150Z,98449.4
2023-02-21T02:01:03.324Z,98449.69
2023-02-21T02:02:07.431Z,98451.55
2023-02-21T02:03:11.562Z,98444.66
2023-02-21T02:04:15.788Z,98450.2
2023-02-21T02:05:19.984Z,98450.3
2023-02-21T02:06:24.081Z,98453.49
2023-02-21T02:07:28.176Z,98440.03
2023-02-21T02:08:32.287Z,98462.85
2023-02-21T02:09:36.388Z,98446.61
2023-02-21T02:10:40.521Z,98444.45
2023-02-21T02:11:44.619Z,98451.43
2023-02-21T02:12:48.706Z,98441.78
2023-02-21T02:13:52.813Z,98450.09
2023-02-21T02:14:56.899Z,98440.73
2023-02-21T02:16:01.245Z,98459.05
2023-02-21T02:17:05.417Z,98439.92
2023-02-21T02:18:09.498Z,98451.95
2023-02-21T02:19:13.672Z,98450.53
2023-02-21T02:20:17.837Z,98450.3
2023-02-21T02:21:21.932Z,98451.63
2023-02-21T02:22:26.048Z,98446.41
2023-02-21T02:23:30.148Z,98443.32
2023-02-21T02:24:34.275Z,98442.3
2023-02-21T02:25:38.370Z,98449.69
2023-02-21T02:26:42.453Z,98441.9
2023-02-21T02:27:46.620Z,98453.7
2023-02-21T02:28:50.707Z,98449.69
2023-02-21T02:29:54.833Z,98449.48
2023-02-21T02:30:59.243Z,98454.63
2023-02-21T02:32:03.786Z,98451.55
2023-02-21T02:33:08.216Z,98445.27
2023-02-21T02:34:12.315Z,98455.67
2023-02-21T02:35:16.432Z,98445.91
2023-02-21T02:36:20.554Z,98450.62
2023-02-21T02:37:24.686Z,98442.51
2023-02-21T02:38:28.793Z,98441.29
2023-02-21T02:39:32.899Z,98440.77
2023-02-21T02:40:37.003Z,98435.83
2023-02-21T02:41:41.091Z,98441.17
2023-02-21T02:42:45.195Z,98446.52
2023-02-21T02:43:49.318Z,98436.34
2023-02-21T02:44:53.429Z,98433.35
2023-02-21T02:45:57.543Z,98443.03
2023-02-21T02:47:01.689Z,98444.16
2023-02-21T02:48:05.832Z,98432.02
2023-02-21T02:49:09.930Z,98448.88
2023-02-21T02:50:14.029Z,98447.13
2023-02-21T02:51:18.579Z,98440.45
2023-02-21T02:52:22.699Z,98441.7
2023-02-21T02:53:26.797Z,98447.77
2023-02-21T02:54:30.904Z,98453.52
2023-02-21T02:55:35.021Z,98454.86
2023-02-21T02:56:39.093Z,98449.8
2023-02-21T02:57:43.274Z,98461.34
2023-02-21T02:58:47.382Z,98448.06
2023-02-21T02:59:51.488Z,98452.06
2023-02-21T03:00:55.574Z,98456.48
2023-02-21T03:01:59.899Z,98452.06
2023-02-21T03:03:04.025Z,98442.83
2023-02-21T03:04:08.113Z,98455.8
2023-02-21T03:05:12.365Z,98454.02
2023-02-21T03:06:16.454Z,98450.33
2023-02-21T03:07:20.540Z,98451.45
2023-02-21T03:08:24.646Z,98462.27
2023-02-21T03:09:28.733Z,98454.74
2023-02-21T03:10:32.827Z,98458.87
2023-02-21T03:11:36.909Z,98462.16
2023-02-21T03:12:41.000Z,98453.44
2023-02-21T03:13:45.094Z,98453.72
2023-02-21T03:14:49.209Z,98457
2023-02-21T03:15:53.428Z,98462.79
2023-02-21T03:16:57.619Z,98448.49
2023-02-21T03:18:01.750Z,98452.91
2023-02-21T03:19:05.845Z,98449.3
2023-02-21T03:20:09.917Z,98453.52
2023-02-21T03:21:14.717Z,98459.19
2023-02-21T03:22:19.229Z,98464.13
2023-02-21T03:23:23.355Z,98463.92
2023-02-21T03:24:27.460Z,98464.65
2023-02-21T03:25:31.566Z,98460.31
2023-02-21T03:26:35.685Z,98458.98
2023-02-21T03:27:39.841Z,98451.28
2023-02-21T03:28:43.965Z,98469.67
2023-02-21T03:29:48.211Z,98466.59
2023-02-21T03:30:52.310Z,98461.33
2023-02-21T03:31:56.644Z,98461.77
2023-02-21T03:33:00.933Z,98465.87
2023-02-21T03:34:05.029Z,98461.04
2023-02-21T03:35:09.138Z,98458.37
2023-02-21T03:36:13.226Z,98460.64
2023-02-21T03:37:17.350Z,98454.45
2023-02-21T03:38:21.569Z,98453.55
2023-02-21T03:39:25.678Z,98472.95
2023-02-21T03:40:29.850Z,98466.07
2023-02-21T03:41:33.978Z,98457.03
2023-02-21T03:42:38.136Z,98460.84
2023-02-21T03:43:42.240Z,98467.61
2023-02-21T03:44:46.363Z,98467.91
2023-02-21T03:45:50.474Z,98467.7
2023-02-21T03:46:54.797Z,98460
2023-02-21T03:47:59.049Z,98466.98
2023-02-21T03:49:03.178Z,98457.73
2023-02-21T03:50:07.278Z,98466.38
2023-02-21T03:51:11.393Z,98476.02
2023-02-21T03:52:15.731Z,98463.98
2023-02-21T03:53:19.860Z,98469.45
2023-02-21T03:54:23.977Z,98463.78
2023-02-21T03:55:28.100Z,98474.89
2023-02-21T03:56:42.778Z,98456.69
2023-02-21T03:57:47.026Z,98466.55
2023-02-21T03:58:51.139Z,98474.97
2023-02-21T03:59:55.246Z,98465.53
2023-02-21T04:00:59.480Z,98466.75
2023-02-21T04:02:03.926Z,98474.48
2023-02-21T04:03:08.083Z,98467.88
2023-02-21T04:04:12.199Z,98467.07
2023-02-21T04:05:16.398Z,98468.49
2023-02-21T04:06:20.542Z,98461.92
2023-02-21T04:07:24.617Z,98470.47
2023-02-21T04:08:28.718Z,98473.95
2023-02-21T04:09:32.822Z,98471.28
2023-02-21T04:10:52.309Z,98472.94
2023-02-21T04:11:56.748Z,98478.05
2023-02-21T04:13:00.865Z,98469.34
2023-02-21T04:14:04.971Z,98471.69
2023-02-21T04:15:09.139Z,98465.5
2023-02-21T04:16:13.358Z,98475.38
2023-02-21T04:17:17.510Z,98475.09
2023-02-21T04:18:21.602Z,98465.09
2023-02-21T04:19:25.697Z,98471.8
2023-02-21T04:20:29.794Z,98478.17
2023-02-21T04:21:33.897Z,98475.17
2023-02-21T04:22:38.009Z,98472.89
2023-02-21T04:23:42.116Z,98474.76
2023-02-21T04:24:46.220Z,98479.78
2023-02-21T04:25:50.364Z,98476.18
2023-02-21T04:26:54.452Z,98477.4
2023-02-21T04:27:58.582Z,98471.77
2023-02-21T04:29:02.658Z,98464.88
2023-02-21T04:30:07.012Z,98474.76
2023-02-21T04:31:11.370Z,98468.97
2023-02-21T04:32:15.826Z,98468.56
2023-02-21T04:33:20.087Z,98466.94
2023-02-21T04:34:24.184Z,98473.22
2023-02-21T04:35:28.278Z,98467.14
2023-02-21T04:36:32.405Z,98470.34
2023-02-21T04:37:36.529Z,98471.03
2023-02-21T04:38:40.614Z,98461.67
2023-02-21T04:39:44.723Z,98471.07
2023-02-21T04:40:48.811Z,98467.34
2023-02-21T04:41:52.921Z,98476.17
2023-02-21T04:42:57.012Z,98466.37
2023-02-21T04:44:01.121Z,98464.42
2023-02-21T04:45:05.230Z,98471.72
2023-02-21T04:46:09.541Z,98473.78
2023-02-21T04:47:13.704Z,98469.97
2023-02-21T04:48:17.829Z,98468.63
2023-02-21T04:49:21.933Z,98462.35
2023-02-21T04:50:26.026Z,98479.33
2023-02-21T04:51:30.117Z,98471.83
2023-02-21T04:52:34.275Z,98473.45
2023-02-21T04:53:38.427Z,98477.27
2023-02-21T04:54:42.530Z,98473.87
2023-02-21T04:55:46.629Z,98475.33
2023-02-21T04:56:50.834Z,98482.54
2023-02-21T04:57:55.059Z,98488.82
2023-02-21T04:58:59.174Z,98476.17
2023-02-21T05:00:03.292Z,98495.52
2023-02-21T05:01:07.453Z,98482.66
2023-02-21T05:02:11.733Z,98488.62
2023-02-21T05:03:15.866Z,98487.69
2023-02-21T05:04:20.055Z,98489.67
2023-02-21T05:05:24.277Z,98492.76
2023-02-21T05:06:28.513Z,98506.13
2023-02-21T05:07:32.617Z,98502.2
2023-02-21T05:08:36.741Z,98503.95
2023-02-21T05:09:40.858Z,98495.23
2023-02-21T05:10:46.850Z,98509.09
2023-02-21T05:11:50.984Z,98497.98
2023-02-21T05:12:55.088Z,98503.62
2023-02-21T05:13:59.183Z,98501.27
2023-02-21T05:15:03.283Z,98496.41
2023-02-21T05:16:07.374Z,98501.03
2023-02-21T05:17:11.474Z,98496.2
2023-02-21T05:18:15.667Z,98499.28
2023-02-21T05:19:19.765Z,98498.34
2023-02-21T05:20:23.861Z,98491.04
2023-02-21T05:21:27.984Z,98499.36
2023-02-21T05:22:32.082Z,98492.06
2023-02-21T05:23:36.181Z,98496.4
2023-02-21T05:24:40.315Z,98510.19
2023-02-21T05:25:44.428Z,98496.8
2023-02-21T05:26:48.570Z,98505.36
2023-02-21T05:27:52.650Z,98485.7
2023-02-21T05:28:56.786Z,98493.84
2023-02-21T05:30:01.115Z,98495.88
2023-02-21T05:31:05.683Z,98495.39
2023-02-21T05:32:10.327Z,98493.52
2023-02-21T05:33:14.592Z,98484.36
2023-02-21T05:34:18.705Z,98480.27
2023-02-21T05:35:22.861Z,98489.59
2023-02-21T05:36:26.974Z,98480.75
2023-02-21T05:37:32.398Z,98482.41
2023-02-21T05:38:36.543Z,98485.09
2023-02-21T05:39:40.689Z,98477.06
2023-02-21T05:40:44.812Z,98484.16
2023-02-21T05:41:48.932Z,98477.88
2023-02-21T05:42:53.025Z,98488.78
2023-02-21T05:43:57.119Z,98490.56
2023-02-21T05:45:01.260Z,98492.3
2023-02-21T05:46:05.577Z,98486.63
2023-02-21T05:47:09.755Z,98485.91
2023-02-21T05:48:13.866Z,98488.3
2023-02-21T05:49:17.975Z,98481.52
2023-02-21T05:50:22.088Z,98476.47
2023-02-21T05:51:26.262Z,98485.62
2023-02-21T05:52:30.411Z,98477.52
2023-02-21T05:53:34.559Z,98484.57
2023-02-21T05:54:38.688Z,98479.34
2023-02-21T05:55:42.805Z,98491.78
2023-02-21T05:56:46.984Z,98483.47
2023-02-21T05:57:51.130Z,98488.42
2023-02-21T05:58:55.297Z,98489.23
2023-02-21T05:59:59.401Z,98486.36
2023-02-21T06:01:03.490Z,98492.92
2023-02-21T06:02:07.714Z,98495.31
2023-02-21T06:03:11.996Z,98494.06
2023-02-21T06:04:16.270Z,98496.45
2023-02-21T06:05:20.397Z,98498.39
2023-02-21T06:06:24.519Z,98495.11
2023-02-21T06:07:28.651Z,98508.08
2023-02-21T06:08:32.801Z,98500.58
2023-02-21T06:09:36.908Z,98506.42
2023-02-21T06:10:41.040Z,98501.72
2023-02-21T06:11:45.150Z,98495.44
2023-02-21T06:12:49.270Z,98500.47
2023-02-21T06:13:53.416Z,98502.84
2023-02-21T06:14:57.932Z,98502.41
2023-02-21T06:16:02.119Z,98493.58
2023-02-21T06:17:06.315Z,98502.13
2023-02-21T06:18:10.480Z,98499.77
2023-02-21T06:19:14.584Z,98505.41
2023-02-21T06:20:18.713Z,98491.75
2023-02-21T06:21:22.855Z,98506.34
2023-02-21T06:22:26.940Z,98507.39
2023-02-21T06:23:31.035Z,98500.91
2023-02-21T06:24:35.143Z,98503.98
2023-02-21T06:25:39.259Z,98511.41
2023-02-21T06:26:43.417Z,98498.72
2023-02-21T06:27:47.524Z,98498.11
2023-02-21T06:28:51.655Z,98443.03
2023-02-21T06:29:55.780Z,98457.42
2023-02-21T06:31:00.034Z,98493.28
2023-02-21T06:32:04.314Z,98491.02
2023-02-21T06:33:08.522Z,98506.45
2023-02-21T06:34:12.660Z,98498.64
2023-02-21T06:35:16.759Z,98500.06
2023-02-21T06:36:20.843Z,98513.55
2023-02-21T06:37:24.960Z,98509.95
2023-02-21T06:38:29.077Z,98517.56
2023-02-21T06:39:33.185Z,98514.89
2023-02-21T06:40:37.292Z,98519.75
2023-02-21T06:41:41.400Z,98523.64
2023-02-21T06:42:45.532Z,98525.09
2023-02-21T06:43:49.675Z,98520.85
2023-02-21T06:44:53.794Z,98518.41
2023-02-21T06:45:58.023Z,98517.89
2023-02-21T06:47:02.233Z,98515.62
2023-02-21T06:48:06.352Z,98521.38
2023-02-21T06:49:10.452Z,98531.78
2023-02-21T06:50:14.607Z,98530.33
2023-02-21T06:51:18.785Z,98535.36
2023-02-21T06:52:22.873Z,98534.14
2023-02-21T06:53:26.986Z,98533.73
2023-02-21T06:54:31.130Z,98530.7
2023-02-21T06:55:35.458Z,98536.94
2023-02-21T06:56:39.583Z,98525.8
2023-02-21T06:57:43.675Z,98529.16
2023-02-21T06:58:47.822Z,98545.53
2023-02-21T06:59:51.946Z,98535.16
2023-02-21T07:00:58.664Z,98545.41
2023-02-21T07:02:02.873Z,98545.45
2023-02-21T07:03:06.989Z,98546.55
2023-02-21T07:04:11.082Z,98542.05
2023-02-21T07:05:15.210Z,98537.19
2023-02-21T07:06:19.336Z,98531.02
2023-02-21T07:07:23.438Z,98527.02
2023-02-21T07:08:27.572Z,98533.7
2023-02-21T07:09:31.668Z,98517.85
2023-02-21T07:10:35.803Z,98529.08
2023-02-21T07:11:39.917Z,98523.41
2023-02-21T07:12:44.021Z,98535.23
2023-02-21T07:13:48.159Z,98545.94
2023-02-21T07:14:52.253Z,98533.61
2023-02-21T07:15:56.461Z,98542.86
2023-02-21T07:17:00.888Z,98537.63
2023-02-21T07:18:04.997Z,98534.95
2023-02-21T07:19:09.146Z,98539.05
2023-02-21T07:20:13.237Z,98530.62
2023-02-21T07:21:17.954Z,98534.55
2023-02-21T07:22:22.180Z,98551.4
2023-02-21T07:23:26.362Z,98572.08
2023-02-21T07:24:30.468Z,98564.77
2023-02-21T07:25:34.611Z,98559.74
2023-02-21T07:26:38.719Z,98559.22
2023-02-21T07:27:42.878Z,98541.23
2023-02-21T07:28:47.171Z,98538.84
2023-02-21T07:29:51.336Z,98538.84
2023-02-21T07:30:55.522Z,98532.27
2023-02-21T07:31:59.970Z,98532.27
2023-02-21T07:33:04.166Z,98548.32
2023-02-21T07:34:08.330Z,98550.27
2023-02-21T07:35:12.436Z,98547.59
2023-02-21T07:36:16.542Z,98552.24
2023-02-21T07:37:20.658Z,98548.23
2023-02-21T07:38:24.798Z,98554.28
2023-02-21T07:39:28.954Z,98564.98
2023-02-21T07:40:33.051Z,98556.14
2023-02-21T07:41:37.189Z,98553.47
2023-02-21T07:42:41.311Z,98507.71
2023-02-21T07:43:45.457Z,98523.36
2023-02-21T07:44:49.549Z,98554.48
2023-02-21T07:45:53.720Z,98540.3
2023-02-21T07:46:57.831Z,98544.72
2023-02-21T07:48:01.944Z,98543.78
2023-02-21T07:49:06.052Z,98540.3
2023-02-21T07:50:10.162Z,98542.16
2023-02-21T07:51:15.025Z,98540.41
2023-02-21T07:52:19.757Z,98542.67
2023-02-21T07:53:23.866Z,98537.33
2023-02-21T07:54:28.007Z,98555.2
2023-02-21T07:55:32.176Z,98544.42
2023-02-21T07:56:36.277Z,98551.72
2023-02-21T07:57:40.418Z,98539.56
2023-02-21T07:58:44.528Z,98546.16
2023-02-21T07:59:48.655Z,98525.81
2023-02-21T08:00:52.751Z,98537.94
2023-02-21T08:01:56.977Z,98521.48
2023-02-21T08:03:01.091Z,98532.27
2023-02-21T08:04:05.685Z,98538.34
2023-02-21T08:05:09.997Z,98524.56
2023-02-21T08:06:14.177Z,98543.08
2023-02-21T08:07:18.361Z,98546.69
2023-02-21T08:08:22.508Z,98548.52
2023-02-21T08:09:26.671Z,98556.54
2023-02-21T08:10:30.821Z,98543.39
2023-02-21T08:11:34.970Z,98560.06
2023-02-21T08:12:39.132Z,98554.91
2023-02-21T08:13:43.283Z,98526.83
2023-02-21T08:14:47.451Z,98532.78
2023-02-21T08:15:51.625Z,98550.9
2023-02-21T08:16:55.844Z,98540.73
2023-02-21T08:17:59.966Z,98542.38
2023-02-21T08:19:04.106Z,98539.18
2023-02-21T08:20:08.207Z,98562.32
2023-02-21T08:21:12.649Z,98555.72
2023-02-21T08:22:17.370Z,98568.08
2023-02-21T08:23:21.468Z,98557.49
2023-02-21T08:24:25.585Z,98564.17
2023-02-21T08:25:29.716Z,98560.66
2023-02-21T08:26:33.865Z,98548.42
2023-02-21T08:27:37.983Z,98565.72
2023-02-21T08:28:42.073Z,98555.02
2023-02-21T08:29:46.189Z,98549.87
2023-02-21T08:30:50.295Z,98566.73
2023-02-21T08:31:54.588Z,98559.95
2023-02-21T08:32:58.796Z,98561.38
2023-02-21T08:34:02.888Z,98582.37
2023-02-21T08:35:06.989Z,98573.13
2023-02-21T08:36:11.119Z,98574.46
2023-02-21T08:37:15.336Z,98569.61
2023-02-21T08:38:19.456Z,98571.88
2023-02-21T08:39:23.608Z,98570.25
2023-02-21T08:40:27.739Z,98572.39
2023-02-21T08:41:31.825Z,98580.73
2023-02-21T08:42:35.953Z,98577.63
2023-02-21T08:43:40.043Z,98581.64
2023-02-21T08:44:44.128Z,98591.92
2023-02-21T08:45:48.255Z,98573
2023-02-21T08:46:52.506Z,98578.56
2023-02-21T08:47:57.012Z,98580
2023-02-21T08:49:01.135Z,98585.36
2023-02-21T08:50:05.269Z,98588.12
2023-02-21T08:51:09.390Z,98578.75
2023-02-21T08:52:13.489Z,98590.09
2023-02-21T08:53:17.592Z,98588.95
2023-02-21T08:54:21.711Z,98576.09
2023-02-21T08:55:25.819Z,98589.48
2023-02-21T08:56:29.956Z,98595.52
2023-02-21T08:57:34.163Z,98591.42
2023-02-21T08:58:39.184Z,98581.33
2023-02-21T08:59:43.376Z,98579.5
2023-02-21T09:00:47.635Z,98601.39
2023-02-21T09:01:51.976Z,98581.33
2023-02-21T09:02:56.068Z,98582.05
2023-02-21T09:04:00.234Z,98578.97
2023-02-21T09:05:04.351Z,98585.45
2023-02-21T09:06:08.461Z,98576.41
2023-02-21T09:07:12.589Z,98595.43
2023-02-21T09:08:16.744Z,98593.89
2023-02-21T09:09:20.858Z,98587.52
2023-02-21T09:10:25.005Z,98603.05
2023-02-21T09:11:29.190Z,98597.78
2023-02-21T09:12:33.296Z,98597.29
2023-02-21T09:13:37.430Z,98592.02
2023-02-21T09:14:41.567Z,98607.58
2023-02-21T09:15:45.684Z,98604.17
2023-02-21T09:16:49.959Z,98603.23
2023-02-21T09:17:54.320Z,98607.77
2023-02-21T09:18:58.451Z,98619.8
2023-02-21T09:20:02.622Z,98615.88
2023-02-21T09:21:06.736Z,98601.8
2023-02-21T09:22:10.867Z,98614.95
2023-02-21T09:23:14.985Z,98613.13
2023-02-21T09:24:19.108Z,98603.87
2023-02-21T09:25:23.325Z,98614.95
2023-02-21T09:26:27.448Z,98610.94
2023-02-21T09:27:31.580Z,98610.75
2023-02-21T09:28:35.703Z,98610.93
2023-02-21T09:29:47.614Z,98627
2023-02-21T09:30:51.750Z,98627.09
2023-02-21T09:31:56.306Z,98618.66
2023-02-21T09:33:00.585Z,98619.47
2023-02-21T09:34:04.704Z,98613.92
2023-02-21T09:35:08.876Z,98612.19
2023-02-21T09:36:13.044Z,98623.69
2023-02-21T09:37:17.158Z,98621.13
2023-02-21T09:38:21.297Z,98619.59
2023-02-21T09:39:25.424Z,98619.68
2023-02-21T09:40:29.576Z,98623.69
2023-02-21T09:41:33.731Z,98623.28
2023-02-21T09:42:37.887Z,98627.3
2023-02-21T09:43:41.992Z,98627.41
2023-02-21T09:44:46.111Z,98626.59
2023-02-21T09:45:50.295Z,98633.36
2023-02-21T09:46:54.476Z,98633.36
2023-02-21T09:47:58.624Z,98620.5
2023-02-21T09:49:02.736Z,98631.21
2023-02-21T09:50:06.883Z,98639.64
2023-02-21T09:51:10.993Z,98637.37
2023-02-21T09:52:15.118Z,98640.44
2023-02-21T09:53:19.226Z,98643.13
2023-02-21T09:54:23.360Z,98624.4
2023-02-21T09:55:30.851Z,98637.36
2023-02-21T09:56:35.049Z,98632.53
2023-02-21T09:57:39.158Z,98636.55
2023-02-21T09:58:43.248Z,98632.22
2023-02-21T09:59:47.336Z,98638.89
2023-02-21T10:00:51.604Z,98645.59
2023-02-21T10:01:55.802Z,98621.52
2023-02-21T10:03:00.013Z,98629.98
2023-02-21T10:04:04.126Z,98638.91
2023-02-21T10:05:08.278Z,98633.14
2023-02-21T10:06:12.397Z,98624.42
2023-02-21T10:07:16.590Z,98630.47
2023-02-21T10:08:20.698Z,98638.72
2023-02-21T10:09:24.789Z,98644.05
2023-02-21T10:10:28.876Z,98637.27
2023-02-21T10:11:32.985Z,98634.08
2023-02-21T10:12:37.100Z,98621.34
2023-02-21T10:13:41.221Z,98625.53
2023-02-21T10:14:45.354Z,98620.18
2023-02-21T10:15:49.454Z,98632.62
2023-02-21T10:16:53.821Z,98636.64
2023-02-21T10:17:58.056Z,98635.41
2023-02-21T10:19:02.146Z,98633.14
2023-02-21T10:20:06.279Z,98631.39
2023-02-21T10:21:10.408Z,98624.62
2023-02-21T10:22:14.608Z,98628.62
2023-02-21T10:23:19.121Z,98633.27
2023-02-21T10:24:23.248Z,98637.98
2023-02-21T10:25:27.378Z,98634.28
2023-02-21T10:26:31.499Z,98635.61
2023-02-21T10:27:35.625Z,98639.54
2023-02-21T10:28:39.728Z,98641.3
2023-02-21T10:29:43.888Z,98632.22
2023-02-21T10:30:48.642Z,98631.3
2023-02-21T10:31:53.089Z,98637.89
2023-02-21T10:32:57.278Z,98630.28
2023-02-21T10:34:01.432Z,98633.69
2023-02-21T10:35:05.554Z,98633.67
2023-02-21T10:36:09.684Z,98638.92
2023-02-21T10:37:13.887Z,98641
2023-02-21T10:38:18.175Z,98647.56
2023-02-21T10:39:22.264Z,98634.92
2023-02-21T10:40:26.400Z,98643.98
2023-02-21T10:41:30.509Z,98646.45
2023-02-21T10:42:34.651Z,98637.7
2023-02-21T10:43:38.776Z,98640.79
2023-02-21T10:44:42.919Z,98635.33
2023-02-21T10:45:48.083Z,98650.16
2023-02-21T10:46:52.328Z,98644.7
2023-02-21T10:47:56.489Z,98639.95
2023-02-21T10:49:00.690Z,98643.89
2023-02-21T10:50:04.802Z,98632.68
2023-02-21T10:51:09.045Z,98635.97
2023-02-21T10:52:13.197Z,98646.16
2023-02-21T10:53:17.384Z,98642.34
2023-02-21T10:54:21.626Z,98638.22
2023-02-21T10:55:34.012Z,98637.2
2023-02-21T10:56:38.156Z,98632.98
2023-02-21T10:57:42.288Z,98643.57
2023-02-21T10:58:46.396Z,98645.12
2023-02-21T10:59:51.723Z,98634.12
2023-02-21T11:00:55.918Z,98649.24
2023-02-21T11:02:00.104Z,98638.95
2023-02-21T11:03:04.360Z,98640.39
2023-02-21T11:04:08.488Z,98641.21
2023-02-21T11:05:12.673Z,98646.03
2023-02-21T11:06:16.807Z,98627.3
2023-02-21T11:07:20.951Z,98636.17
2023-02-21T11:08:25.040Z,98636.99
2023-02-21T11:09:29.188Z,98629.98
2023-02-21T11:10:33.423Z,98625.97
2023-02-21T11:11:38.598Z,98632.77
2023-02-21T11:12:42.783Z,98628.05
2023-02-21T11:13:46.899Z,98628.55
2023-02-21T11:14:51.120Z,98627.41
2023-02-21T11:15:55.416Z,98630.61
2023-02-21T11:16:59.573Z,98637.5
2023-02-21T11:18:03.694Z,98632.34
2023-02-21T11:19:07.828Z,98634.22
2023-02-21T11:20:11.957Z,98639.65
2023-02-21T11:21:16.796Z,98628.45
2023-02-21T11:22:21.122Z,98636.08
2023-02-21T11:23:25.243Z,98644.1
2023-02-21T11:24:29.333Z,98635.76
2023-02-21T11:25:33.461Z,98639.98
2023-02-21T11:26:37.645Z,98638.13
2023-02-21T11:27:41.759Z,98634.2
2023-02-21T11:28:48.183Z,98642.77
2023-02-21T11:29:52.274Z,98643.38
2023-02-21T11:30:56.455Z,98645.36
2023-02-21T11:32:00.674Z,98644.22
2023-02-21T11:33:04.872Z,98641.42
2023-02-21T11:34:08.988Z,98657.19
2023-02-21T11:35:13.071Z,98647.83
2023-02-21T11:36:17.169Z,98642.23
2023-02-21T11:37:21.297Z,98656.38
2023-02-21T11:38:27.504Z,98653.05
2023-02-21T11:39:32.487Z,98653.38
2023-02-21T11:40:36.664Z,98655.52
2023-02-21T11:41:40.768Z,98667.33
2023-02-21T11:42:45.129Z,98663.02
2023-02-21T11:43:49.218Z,98660.05
2023-02-21T11:44:53.354Z,98665.09
2023-02-21T11:45:57.489Z,98654.78
2023-02-21T11:47:01.637Z,98662.81
2023-02-21T11:48:05.750Z,98665.17
2023-02-21T11:49:09.873Z,98661.16
2023-02-21T11:50:14.012Z,98671.06
2023-02-21T11:51:18.402Z,98662.23
2023-02-21T11:52:22.522Z,98666.75
2023-02-21T11:53:26.651Z,98673.64
2023-02-21T11:54:30.799Z,98660.5
2023-02-21T11:55:34.915Z,98667.28
2023-02-21T11:56:39.033Z,98660.39
2023-02-21T11:57:43.135Z,98663.47
2023-02-21T11:58:47.239Z,98670.98
2023-02-21T11:59:51.341Z,98677.27
2023-02-21T12:00:55.499Z,98673.77
2023-02-21T12:01:59.604Z,98656.58
2023-02-21T12:03:03.753Z,98658.12
2023-02-21T12:04:07.844Z,98656.66
2023-02-21T12:05:11.942Z,98662.86
2023-02-21T12:06:16.192Z,98661.52
2023-02-21T12:07:20.368Z,98661.4
2023-02-21T12:08:24.469Z,98663.38
2023-02-21T12:09:28.679Z,98663.78
2023-02-21T12:10:32.800Z,98602.73
2023-02-21T12:11:37.031Z,98677.66
2023-02-21T12:12:41.168Z,98682.52
2023-02-21T12:13:45.278Z,98678.38
2023-02-21T12:14:49.375Z,98676.73
2023-02-21T12:15:53.546Z,98672.72
2023-02-21T12:16:57.805Z,98680.87
2023-02-21T12:18:01.897Z,98678.61
2023-02-21T12:19:05.985Z,98681.17
2023-02-21T12:20:10.100Z,98672.62
2023-02-21T12:21:15.097Z,98684.66
2023-02-21T12:22:19.773Z,98671.28
2023-02-21T12:23:24.041Z,98673.34
2023-02-21T12:24:28.375Z,98678.49
2023-02-21T12:25:32.544Z,98675.2
2023-02-21T12:26:36.649Z,98674.27
2023-02-21T12:27:40.801Z,98679.71
2023-02-21T12:28:44.898Z,98673.02
2023-02-21T12:29:48.987Z,98675.61
2023-02-21T12:30:53.211Z,98677.55
2023-02-21T12:31:57.657Z,98691.05
2023-02-21T12:33:01.896Z,98690.84
2023-02-21T12:34:05.996Z,98684.56
2023-02-21T12:35:10.106Z,98680.02
2023-02-21T12:36:14.206Z,98686.63
2023-02-21T12:37:18.325Z,98686.92